sensor_id;sensor_type;location;lat;lon;timestamp;temperature;humidity
21787;DHT22;11055;50.870;4.316;2023-05-10T00:00:33;14.60;99.90
21787;DHT22;11055;50.870;4.316;2023-05-10T00:02:59;14.50;99.90
21787;DHT22;11055;50.870;4.316;2023-05-10T00:05:25;14.40;99.90
21787;DHT22;11055;50.870;4.316;2023-05-10T00:07:50;14.30;99.90
21787;DHT22;11055;50.870;4.316;2023-05-10T00:10:16;14.30;99.90
21787;DHT22;11055;50.870;4.316;2023-05-10T00:12:42;14.50;99.90
21787;DHT22;11055;50.870;4.316;2023-05-10T00:15:08;14.60;99.90
21787;DHT22;11055;50.870;4.316;2023-05-10T00:17:34;14.50;99.90
21787;DHT22;11055;50.870;4.316;2023-05-10T00:20:00;14.50;99.90
21787;DHT22;11055;50.870;4.316;2023-05-10T00:22:25;14.50;99.90
21787;DHT22;11055;50.870;4.316;2023-05-10T00:24:51;14.50;99.90
21787;DHT22;11055;50.870;4.316;2023-05-10T00:27:17;14.40;99.90
21787;DHT22;11055;50.870;4.316;2023-05-10T00:29:42;14.30;99.90
21787;DHT22;11055;50.870;4.316;2023-05-10T00:32:08;14.20;99.90
21787;DHT22;11055;50.870;4.316;2023-05-10T00:34:33;14.30;99.90
21787;DHT22;11055;50.870;4.316;2023-05-10T00:36:59;14.40;99.90
21787;DHT22;11055;50.870;4.316;2023-05-10T00:39:25;14.40;99.90
21787;DHT22;11055;50.870;4.316;2023-05-10T00:41:52;14.30;99.90
21787;DHT22;11055;50.870;4.316;2023-05-10T00:44:17;14.40;99.90
21787;DHT22;11055;50.870;4.316;2023-05-10T00:46:44;14.30;99.90
21787;DHT22;11055;50.870;4.316;2023-05-10T00:49:10;14.30;99.90
21787;DHT22;11055;50.870;4.316;2023-05-10T00:51:36;14.20;99.90
21787;DHT22;11055;50.870;4.316;2023-05-10T00:54:03;14.00;99.90
21787;DHT22;11055;50.870;4.316;2023-05-10T00:56:28;14.10;99.90
21787;DHT22;11055;50.870;4.316;2023-05-10T00:58:55;14.10;99.90
21787;DHT22;11055;50.870;4.316;2023-05-10T01:01:21;14.20;99.90
21787;DHT22;11055;50.870;4.316;2023-05-10T01:03:46;14.20;99.90
21787;DHT22;11055;50.870;4.316;2023-05-10T01:06:13;14.30;99.90
21787;DHT22;11055;50.870;4.316;2023-05-10T01:08:39;14.30;99.90
21787;DHT22;11055;50.870;4.316;2023-05-10T01:11:05;14.40;99.90
21787;DHT22;11055;50.870;4.316;2023-05-10T01:13:33;14.20;99.90
21787;DHT22;11055;50.870;4.316;2023-05-10T01:16:00;14.20;99.90
21787;DHT22;11055;50.870;4.316;2023-05-10T01:18:29;14.20;99.90
21787;DHT22;11055;50.870;4.316;2023-05-10T01:21:17;14.10;99.90
21787;DHT22;11055;50.870;4.316;2023-05-10T01:29:14;14.10;99.90
21787;DHT22;11055;50.870;4.316;2023-05-10T01:32:15;14.10;99.90
21787;DHT22;11055;50.870;4.316;2023-05-10T01:37:28;13.90;99.90
21787;DHT22;11055;50.870;4.316;2023-05-10T01:40:23;13.90;99.90
21787;DHT22;11055;50.870;4.316;2023-05-10T01:42:54;13.80;99.90
21787;DHT22;11055;50.870;4.316;2023-05-10T01:45:27;13.80;99.90
21787;DHT22;11055;50.870;4.316;2023-05-10T01:48:09;13.80;99.90
21787;DHT22;11055;50.870;4.316;2023-05-10T01:50:37;13.70;99.90
21787;DHT22;11055;50.870;4.316;2023-05-10T01:53:07;13.60;99.90
21787;DHT22;11055;50.870;4.316;2023-05-10T01:55:36;13.60;99.90
21787;DHT22;11055;50.870;4.316;2023-05-10T01:58:08;13.70;99.90
21787;DHT22;11055;50.870;4.316;2023-05-10T02:00:35;13.70;99.90
21787;DHT22;11055;50.870;4.316;2023-05-10T02:03:05;13.60;99.90
21787;DHT22;11055;50.870;4.316;2023-05-10T02:05:32;13.50;99.90
21787;DHT22;11055;50.870;4.316;2023-05-10T02:07:59;13.50;99.90
21787;DHT22;11055;50.870;4.316;2023-05-10T02:10:27;13.50;99.90
21787;DHT22;11055;50.870;4.316;2023-05-10T02:12:54;13.50;99.90
21787;DHT22;11055;50.870;4.316;2023-05-10T02:15:23;13.40;99.90
21787;DHT22;11055;50.870;4.316;2023-05-10T02:17:51;13.20;99.90
21787;DHT22;11055;50.870;4.316;2023-05-10T02:20:19;13.20;99.90
21787;DHT22;11055;50.870;4.316;2023-05-10T02:22:47;13.20;99.90
21787;DHT22;11055;50.870;4.316;2023-05-10T02:25:15;13.10;99.90
21787;DHT22;11055;50.870;4.316;2023-05-10T02:27:42;13.10;99.90
21787;DHT22;11055;50.870;4.316;2023-05-10T02:30:10;13.10;99.90
21787;DHT22;11055;50.870;4.316;2023-05-10T02:32:37;13.10;99.90
21787;DHT22;11055;50.870;4.316;2023-05-10T02:35:03;13.00;99.90
21787;DHT22;11055;50.870;4.316;2023-05-10T02:37:30;13.10;99.90
21787;DHT22;11055;50.870;4.316;2023-05-10T02:39:58;13.10;99.90
21787;DHT22;11055;50.870;4.316;2023-05-10T02:42:26;13.10;99.90
21787;DHT22;11055;50.870;4.316;2023-05-10T02:44:55;13.10;99.90
21787;DHT22;11055;50.870;4.316;2023-05-10T02:47:22;13.20;99.90
21787;DHT22;11055;50.870;4.316;2023-05-10T02:49:48;13.20;99.90
21787;DHT22;11055;50.870;4.316;2023-05-10T02:52:18;13.10;99.90
21787;DHT22;11055;50.870;4.316;2023-05-10T02:54:46;13.20;99.90
21787;DHT22;11055;50.870;4.316;2023-05-10T02:57:16;13.10;99.90
21787;DHT22;11055;50.870;4.316;2023-05-10T02:59:44;13.10;99.90
21787;DHT22;11055;50.870;4.316;2023-05-10T03:02:14;13.10;99.90
21787;DHT22;11055;50.870;4.316;2023-05-10T03:04:40;13.10;99.90
21787;DHT22;11055;50.870;4.316;2023-05-10T03:07:06;13.10;99.90
21787;DHT22;11055;50.870;4.316;2023-05-10T03:09:32;13.10;99.90
21787;DHT22;11055;50.870;4.316;2023-05-10T03:18:11;13.10;99.90
21787;DHT22;11055;50.870;4.316;2023-05-10T03:20:20;13.00;99.90
21787;DHT22;11055;50.870;4.316;2023-05-10T03:22:51;13.00;99.90
21787;DHT22;11055;50.870;4.316;2023-05-10T03:25:19;13.00;99.90
21787;DHT22;11055;50.870;4.316;2023-05-10T03:27:46;13.00;99.90
21787;DHT22;11055;50.870;4.316;2023-05-10T03:30:13;13.00;99.90
21787;DHT22;11055;50.870;4.316;2023-05-10T03:32:39;12.90;99.90
21787;DHT22;11055;50.870;4.316;2023-05-10T03:35:08;13.00;99.90
21787;DHT22;11055;50.870;4.316;2023-05-10T03:37:34;12.90;99.90
21787;DHT22;11055;50.870;4.316;2023-05-10T03:40:01;12.90;99.90
21787;DHT22;11055;50.870;4.316;2023-05-10T03:42:26;12.90;99.90
21787;DHT22;11055;50.870;4.316;2023-05-10T03:44:52;12.80;99.90
21787;DHT22;11055;50.870;4.316;2023-05-10T03:47:18;12.80;99.90
21787;DHT22;11055;50.870;4.316;2023-05-10T03:49:43;12.70;99.90
21787;DHT22;11055;50.870;4.316;2023-05-10T03:52:09;12.80;99.90
21787;DHT22;11055;50.870;4.316;2023-05-10T03:54:34;12.70;99.90
21787;DHT22;11055;50.870;4.316;2023-05-10T03:57:00;12.70;99.90
21787;DHT22;11055;50.870;4.316;2023-05-10T03:59:26;12.80;99.90
21787;DHT22;11055;50.870;4.316;2023-05-10T04:01:52;12.80;99.90
21787;DHT22;11055;50.870;4.316;2023-05-10T04:04:18;12.70;99.90
21787;DHT22;11055;50.870;4.316;2023-05-10T04:06:44;12.80;99.90
21787;DHT22;11055;50.870;4.316;2023-05-10T04:09:10;12.80;99.90
21787;DHT22;11055;50.870;4.316;2023-05-10T04:11:36;12.80;99.90
21787;DHT22;11055;50.870;4.316;2023-05-10T04:14:02;12.70;99.90
21787;DHT22;11055;50.870;4.316;2023-05-10T04:16:27;12.80;99.90
21787;DHT22;11055;50.870;4.316;2023-05-10T04:18:53;12.70;99.90
21787;DHT22;11055;50.870;4.316;2023-05-10T04:21:19;12.80;99.90
21787;DHT22;11055;50.870;4.316;2023-05-10T04:23:45;12.70;99.90
21787;DHT22;11055;50.870;4.316;2023-05-10T04:26:11;12.80;99.90
21787;DHT22;11055;50.870;4.316;2023-05-10T04:28:37;12.80;99.90
21787;DHT22;11055;50.870;4.316;2023-05-10T04:31:04;12.80;99.90
21787;DHT22;11055;50.870;4.316;2023-05-10T04:33:30;12.80;99.90
21787;DHT22;11055;50.870;4.316;2023-05-10T04:35:56;12.90;99.90
21787;DHT22;11055;50.870;4.316;2023-05-10T04:38:21;13.00;99.90
21787;DHT22;11055;50.870;4.316;2023-05-10T04:40:47;13.00;99.90
21787;DHT22;11055;50.870;4.316;2023-05-10T04:43:13;13.20;99.90
21787;DHT22;11055;50.870;4.316;2023-05-10T04:45:38;13.20;99.90
21787;DHT22;11055;50.870;4.316;2023-05-10T04:48:04;13.20;99.90
21787;DHT22;11055;50.870;4.316;2023-05-10T04:50:30;13.20;99.90
21787;DHT22;11055;50.870;4.316;2023-05-10T04:52:57;13.30;99.90
21787;DHT22;11055;50.870;4.316;2023-05-10T04:55:22;13.20;99.90
21787;DHT22;11055;50.870;4.316;2023-05-10T04:57:48;13.20;99.90
21787;DHT22;11055;50.870;4.316;2023-05-10T05:00:14;13.20;99.90
21787;DHT22;11055;50.870;4.316;2023-05-10T05:02:42;13.10;99.90
21787;DHT22;11055;50.870;4.316;2023-05-10T05:05:09;13.10;99.90
21787;DHT22;11055;50.870;4.316;2023-05-10T05:07:35;13.00;99.90
21787;DHT22;11055;50.870;4.316;2023-05-10T05:10:00;13.00;99.90
21787;DHT22;11055;50.870;4.316;2023-05-10T05:12:26;13.00;99.90
21787;DHT22;11055;50.870;4.316;2023-05-10T05:14:51;13.00;99.90
21787;DHT22;11055;50.870;4.316;2023-05-10T05:17:17;13.00;99.90
21787;DHT22;11055;50.870;4.316;2023-05-10T05:19:43;13.10;99.90
21787;DHT22;11055;50.870;4.316;2023-05-10T05:22:08;13.10;99.90
21787;DHT22;11055;50.870;4.316;2023-05-10T05:24:37;13.10;99.90
21787;DHT22;11055;50.870;4.316;2023-05-10T05:27:03;13.10;99.90
21787;DHT22;11055;50.870;4.316;2023-05-10T05:29:29;13.00;99.90
21787;DHT22;11055;50.870;4.316;2023-05-10T05:31:55;13.10;99.90
21787;DHT22;11055;50.870;4.316;2023-05-10T05:34:20;13.10;99.90
21787;DHT22;11055;50.870;4.316;2023-05-10T05:36:47;13.10;99.90
21787;DHT22;11055;50.870;4.316;2023-05-10T05:39:12;13.00;99.90
21787;DHT22;11055;50.870;4.316;2023-05-10T05:41:38;12.90;99.90
21787;DHT22;11055;50.870;4.316;2023-05-10T05:44:04;12.80;99.90
21787;DHT22;11055;50.870;4.316;2023-05-10T05:46:29;12.70;99.90
21787;DHT22;11055;50.870;4.316;2023-05-10T05:48:55;12.70;99.90
21787;DHT22;11055;50.870;4.316;2023-05-10T05:51:21;12.80;99.90
21787;DHT22;11055;50.870;4.316;2023-05-10T05:53:47;12.80;99.90
21787;DHT22;11055;50.870;4.316;2023-05-10T05:56:12;12.80;99.90
21787;DHT22;11055;50.870;4.316;2023-05-10T05:58:38;12.80;99.90
21787;DHT22;11055;50.870;4.316;2023-05-10T06:01:04;12.80;99.90
21787;DHT22;11055;50.870;4.316;2023-05-10T06:03:29;12.80;99.90
21787;DHT22;11055;50.870;4.316;2023-05-10T06:05:55;12.90;99.90
21787;DHT22;11055;50.870;4.316;2023-05-10T06:08:21;12.90;99.90
21787;DHT22;11055;50.870;4.316;2023-05-10T06:10:46;12.80;99.90
21787;DHT22;11055;50.870;4.316;2023-05-10T06:13:12;12.80;99.90
21787;DHT22;11055;50.870;4.316;2023-05-10T06:15:38;12.70;99.90
21787;DHT22;11055;50.870;4.316;2023-05-10T06:18:03;12.70;99.90
21787;DHT22;11055;50.870;4.316;2023-05-10T06:20:29;12.70;99.90
21787;DHT22;11055;50.870;4.316;2023-05-10T06:22:57;12.70;99.90
21787;DHT22;11055;50.870;4.316;2023-05-10T06:25:23;12.80;99.90
21787;DHT22;11055;50.870;4.316;2023-05-10T06:27:49;12.80;99.90
21787;DHT22;11055;50.870;4.316;2023-05-10T06:30:14;12.90;99.90
21787;DHT22;11055;50.870;4.316;2023-05-10T06:32:41;12.90;99.90
21787;DHT22;11055;50.870;4.316;2023-05-10T06:35:07;13.00;99.90
21787;DHT22;11055;50.870;4.316;2023-05-10T06:37:33;13.00;99.90
21787;DHT22;11055;50.870;4.316;2023-05-10T06:39:59;13.10;99.90
21787;DHT22;11055;50.870;4.316;2023-05-10T06:42:26;13.20;99.90
21787;DHT22;11055;50.870;4.316;2023-05-10T06:44:52;13.20;99.90
21787;DHT22;11055;50.870;4.316;2023-05-10T06:47:18;13.20;99.90
21787;DHT22;11055;50.870;4.316;2023-05-10T06:49:44;13.10;99.90
21787;DHT22;11055;50.870;4.316;2023-05-10T06:52:09;13.10;99.90
21787;DHT22;11055;50.870;4.316;2023-05-10T06:54:35;13.10;99.90
21787;DHT22;11055;50.870;4.316;2023-05-10T06:57:01;13.20;99.90
21787;DHT22;11055;50.870;4.316;2023-05-10T06:59:28;13.30;99.90
21787;DHT22;11055;50.870;4.316;2023-05-10T07:01:54;13.40;99.90
21787;DHT22;11055;50.870;4.316;2023-05-10T07:04:19;13.50;99.90
21787;DHT22;11055;50.870;4.316;2023-05-10T07:06:45;13.30;99.90
21787;DHT22;11055;50.870;4.316;2023-05-10T07:09:11;13.30;99.90
21787;DHT22;11055;50.870;4.316;2023-05-10T07:11:38;13.20;99.90
21787;DHT22;11055;50.870;4.316;2023-05-10T07:14:04;13.10;99.90
21787;DHT22;11055;50.870;4.316;2023-05-10T07:16:30;13.20;99.90
21787;DHT22;11055;50.870;4.316;2023-05-10T07:18:56;13.20;99.90
21787;DHT22;11055;50.870;4.316;2023-05-10T07:21:21;13.20;99.90
21787;DHT22;11055;50.870;4.316;2023-05-10T07:23:49;13.20;99.90
21787;DHT22;11055;50.870;4.316;2023-05-10T07:26:15;13.10;99.90
21787;DHT22;11055;50.870;4.316;2023-05-10T07:28:41;13.10;99.90
21787;DHT22;11055;50.870;4.316;2023-05-10T07:31:07;13.10;99.90
21787;DHT22;11055;50.870;4.316;2023-05-10T07:33:32;13.20;99.90
21787;DHT22;11055;50.870;4.316;2023-05-10T07:35:58;13.10;99.90
21787;DHT22;11055;50.870;4.316;2023-05-10T07:38:24;13.00;99.90
21787;DHT22;11055;50.870;4.316;2023-05-10T07:40:49;13.00;99.90
21787;DHT22;11055;50.870;4.316;2023-05-10T07:43:15;12.90;99.90
21787;DHT22;11055;50.870;4.316;2023-05-10T07:45:41;13.00;99.90
21787;DHT22;11055;50.870;4.316;2023-05-10T07:48:07;13.10;99.90
21787;DHT22;11055;50.870;4.316;2023-05-10T07:50:32;13.20;99.90
21787;DHT22;11055;50.870;4.316;2023-05-10T07:52:58;13.20;99.90
21787;DHT22;11055;50.870;4.316;2023-05-10T07:55:23;13.30;99.90
21787;DHT22;11055;50.870;4.316;2023-05-10T07:57:49;13.40;99.90
21787;DHT22;11055;50.870;4.316;2023-05-10T08:00:19;13.40;99.90
21787;DHT22;11055;50.870;4.316;2023-05-10T08:02:45;13.30;99.90
21787;DHT22;11055;50.870;4.316;2023-05-10T08:05:11;13.20;99.90
21787;DHT22;11055;50.870;4.316;2023-05-10T08:07:37;13.20;99.90
21787;DHT22;11055;50.870;4.316;2023-05-10T08:10:03;13.20;99.90
21787;DHT22;11055;50.870;4.316;2023-05-10T08:12:28;13.20;99.90
21787;DHT22;11055;50.870;4.316;2023-05-10T08:14:55;13.30;99.90
21787;DHT22;11055;50.870;4.316;2023-05-10T08:17:21;13.30;99.90
21787;DHT22;11055;50.870;4.316;2023-05-10T08:19:47;13.30;99.90
21787;DHT22;11055;50.870;4.316;2023-05-10T08:22:12;13.20;99.90
21787;DHT22;11055;50.870;4.316;2023-05-10T08:24:38;13.30;99.90
21787;DHT22;11055;50.870;4.316;2023-05-10T08:27:08;13.40;99.90
21787;DHT22;11055;50.870;4.316;2023-05-10T08:29:34;13.60;99.90
21787;DHT22;11055;50.870;4.316;2023-05-10T08:31:59;13.80;99.90
21787;DHT22;11055;50.870;4.316;2023-05-10T08:34:26;13.80;99.90
21787;DHT22;11055;50.870;4.316;2023-05-10T08:36:52;13.50;99.90
21787;DHT22;11055;50.870;4.316;2023-05-10T08:39:17;13.50;99.90
21787;DHT22;11055;50.870;4.316;2023-05-10T08:41:44;13.40;99.90
21787;DHT22;11055;50.870;4.316;2023-05-10T08:44:12;13.30;99.90
21787;DHT22;11055;50.870;4.316;2023-05-10T08:46:41;13.40;99.90
21787;DHT22;11055;50.870;4.316;2023-05-10T08:49:16;13.50;99.90
21787;DHT22;11055;50.870;4.316;2023-05-10T08:51:46;13.60;99.90
21787;DHT22;11055;50.870;4.316;2023-05-10T08:54:13;13.50;99.90
21787;DHT22;11055;50.870;4.316;2023-05-10T08:56:39;13.50;99.90
21787;DHT22;11055;50.870;4.316;2023-05-10T08:59:04;13.50;99.90
21787;DHT22;11055;50.870;4.316;2023-05-10T09:01:31;13.60;99.90
21787;DHT22;11055;50.870;4.316;2023-05-10T09:03:58;13.70;99.90
21787;DHT22;11055;50.870;4.316;2023-05-10T09:06:24;13.60;99.90
21787;DHT22;11055;50.870;4.316;2023-05-10T09:08:50;13.50;99.90
21787;DHT22;11055;50.870;4.316;2023-05-10T09:11:17;13.40;99.90
21787;DHT22;11055;50.870;4.316;2023-05-10T09:13:43;13.50;99.90
21787;DHT22;11055;50.870;4.316;2023-05-10T09:16:09;13.60;99.90
21787;DHT22;11055;50.870;4.316;2023-05-10T09:18:35;13.60;99.90
21787;DHT22;11055;50.870;4.316;2023-05-10T09:21:01;13.80;99.90
21787;DHT22;11055;50.870;4.316;2023-05-10T09:23:27;13.80;99.90
21787;DHT22;11055;50.870;4.316;2023-05-10T09:26:07;13.80;99.90
21787;DHT22;11055;50.870;4.316;2023-05-10T09:28:51;13.80;99.90
21787;DHT22;11055;50.870;4.316;2023-05-10T09:31:16;13.90;99.90
21787;DHT22;11055;50.870;4.316;2023-05-10T09:33:47;13.80;99.90
21787;DHT22;11055;50.870;4.316;2023-05-10T09:36:13;13.80;99.90
21787;DHT22;11055;50.870;4.316;2023-05-10T09:38:49;13.90;99.90
21787;DHT22;11055;50.870;4.316;2023-05-10T09:41:26;13.90;99.90
21787;DHT22;11055;50.870;4.316;2023-05-10T09:43:56;13.90;99.90
21787;DHT22;11055;50.870;4.316;2023-05-10T09:46:22;13.80;99.90
21787;DHT22;11055;50.870;4.316;2023-05-10T09:48:48;13.80;99.90
21787;DHT22;11055;50.870;4.316;2023-05-10T09:51:24;13.70;99.90
21787;DHT22;11055;50.870;4.316;2023-05-10T09:54:13;13.60;99.90
21787;DHT22;11055;50.870;4.316;2023-05-10T09:56:40;13.70;99.90
21787;DHT22;11055;50.870;4.316;2023-05-10T09:59:09;13.70;99.90
21787;DHT22;11055;50.870;4.316;2023-05-10T10:01:35;13.80;99.90
21787;DHT22;11055;50.870;4.316;2023-05-10T10:04:05;13.90;99.90
21787;DHT22;11055;50.870;4.316;2023-05-10T10:06:40;13.70;99.90
21787;DHT22;11055;50.870;4.316;2023-05-10T10:09:07;13.60;99.90
21787;DHT22;11055;50.870;4.316;2023-05-10T10:11:37;13.60;99.90
21787;DHT22;11055;50.870;4.316;2023-05-10T10:14:03;13.50;99.90
21787;DHT22;11055;50.870;4.316;2023-05-10T10:16:30;13.60;99.90
21787;DHT22;11055;50.870;4.316;2023-05-10T10:18:56;13.70;99.90
21787;DHT22;11055;50.870;4.316;2023-05-10T10:21:22;13.80;99.90
21787;DHT22;11055;50.870;4.316;2023-05-10T10:23:48;13.90;99.90
21787;DHT22;11055;50.870;4.316;2023-05-10T10:26:15;14.00;99.90
21787;DHT22;11055;50.870;4.316;2023-05-10T10:28:56;14.20;99.90
21787;DHT22;11055;50.870;4.316;2023-05-10T10:32:27;14.50;99.90
21787;DHT22;11055;50.870;4.316;2023-05-10T10:34:29;14.70;99.90
21787;DHT22;11055;50.870;4.316;2023-05-10T10:36:56;14.90;99.90
21787;DHT22;11055;50.870;4.316;2023-05-10T10:39:24;14.60;99.90
21787;DHT22;11055;50.870;4.316;2023-05-10T10:41:57;14.30;99.90
21787;DHT22;11055;50.870;4.316;2023-05-10T10:50:04;14.30;99.90
21787;DHT22;11055;50.870;4.316;2023-05-10T10:52:40;14.40;99.90
21787;DHT22;11055;50.870;4.316;2023-05-10T10:55:14;14.50;99.90
21787;DHT22;11055;50.870;4.316;2023-05-10T11:00:22;14.70;99.90
21787;DHT22;11055;50.870;4.316;2023-05-10T11:02:50;14.90;99.90
21787;DHT22;11055;50.870;4.316;2023-05-10T11:06:01;15.10;99.90
21787;DHT22;11055;50.870;4.316;2023-05-10T11:08:11;15.10;99.90
21787;DHT22;11055;50.870;4.316;2023-05-10T11:10:37;14.80;99.90
21787;DHT22;11055;50.870;4.316;2023-05-10T11:13:09;14.80;99.90
21787;DHT22;11055;50.870;4.316;2023-05-10T11:15:37;14.50;99.90
21787;DHT22;11055;50.870;4.316;2023-05-10T11:20:52;14.40;99.90
21787;DHT22;11055;50.870;4.316;2023-05-10T11:23:20;14.50;99.90
21787;DHT22;11055;50.870;4.316;2023-05-10T11:25:48;14.60;99.90
21787;DHT22;11055;50.870;4.316;2023-05-10T11:28:14;14.70;99.90
21787;DHT22;11055;50.870;4.316;2023-05-10T11:30:41;14.90;99.90
21787;DHT22;11055;50.870;4.316;2023-05-10T11:33:08;15.10;99.90
21787;DHT22;11055;50.870;4.316;2023-05-10T11:35:40;15.20;99.90
21787;DHT22;11055;50.870;4.316;2023-05-10T11:38:07;15.10;99.90
21787;DHT22;11055;50.870;4.316;2023-05-10T11:40:34;15.20;99.90
21787;DHT22;11055;50.870;4.316;2023-05-10T11:43:00;15.10;99.90
21787;DHT22;11055;50.870;4.316;2023-05-10T11:45:26;15.00;99.90
21787;DHT22;11055;50.870;4.316;2023-05-10T11:47:53;15.10;99.90
21787;DHT22;11055;50.870;4.316;2023-05-10T11:50:18;15.00;99.90
21787;DHT22;11055;50.870;4.316;2023-05-10T11:52:44;14.80;99.90
21787;DHT22;11055;50.870;4.316;2023-05-10T11:55:10;14.90;99.90
21787;DHT22;11055;50.870;4.316;2023-05-10T11:57:36;14.80;99.90
21787;DHT22;11055;50.870;4.316;2023-05-10T12:00:04;14.90;99.90
21787;DHT22;11055;50.870;4.316;2023-05-10T12:02:30;15.10;99.90
21787;DHT22;11055;50.870;4.316;2023-05-10T12:04:56;15.00;99.90
21787;DHT22;11055;50.870;4.316;2023-05-10T12:07:22;15.10;99.90
21787;DHT22;11055;50.870;4.316;2023-05-10T12:12:56;14.90;99.90
21787;DHT22;11055;50.870;4.316;2023-05-10T12:15:23;15.00;99.90
21787;DHT22;11055;50.870;4.316;2023-05-10T12:17:50;15.00;99.90
21787;DHT22;11055;50.870;4.316;2023-05-10T12:20:19;15.20;99.90
21787;DHT22;11055;50.870;4.316;2023-05-10T12:22:56;15.20;99.90
21787;DHT22;11055;50.870;4.316;2023-05-10T12:25:23;15.10;99.90
21787;DHT22;11055;50.870;4.316;2023-05-10T12:27:51;15.00;99.90
21787;DHT22;11055;50.870;4.316;2023-05-10T12:30:36;15.10;99.90
21787;DHT22;11055;50.870;4.316;2023-05-10T12:33:09;15.10;99.90
21787;DHT22;11055;50.870;4.316;2023-05-10T12:35:53;15.10;99.90
21787;DHT22;11055;50.870;4.316;2023-05-10T12:38:25;15.30;99.90
21787;DHT22;11055;50.870;4.316;2023-05-10T12:40:51;15.40;99.90
21787;DHT22;11055;50.870;4.316;2023-05-10T12:43:17;15.60;99.90
21787;DHT22;11055;50.870;4.316;2023-05-10T12:45:42;15.80;99.90
21787;DHT22;11055;50.870;4.316;2023-05-10T12:48:13;15.80;99.90
21787;DHT22;11055;50.870;4.316;2023-05-10T12:50:38;16.00;99.90
21787;DHT22;11055;50.870;4.316;2023-05-10T12:53:04;16.10;99.90
21787;DHT22;11055;50.870;4.316;2023-05-10T12:55:30;16.20;99.90
21787;DHT22;11055;50.870;4.316;2023-05-10T12:57:55;16.20;99.90
21787;DHT22;11055;50.870;4.316;2023-05-10T13:00:21;16.20;99.90
21787;DHT22;11055;50.870;4.316;2023-05-10T13:02:47;16.10;99.90
21787;DHT22;11055;50.870;4.316;2023-05-10T13:05:12;16.20;99.90
21787;DHT22;11055;50.870;4.316;2023-05-10T13:07:38;16.70;99.90
21787;DHT22;11055;50.870;4.316;2023-05-10T13:10:05;16.60;99.90
21787;DHT22;11055;50.870;4.316;2023-05-10T13:12:31;16.60;99.90
21787;DHT22;11055;50.870;4.316;2023-05-10T13:14:57;16.70;99.90
21787;DHT22;11055;50.870;4.316;2023-05-10T13:17:24;17.10;99.90
21787;DHT22;11055;50.870;4.316;2023-05-10T13:19:50;17.50;99.90
21787;DHT22;11055;50.870;4.316;2023-05-10T13:22:16;17.40;99.90
21787;DHT22;11055;50.870;4.316;2023-05-10T13:24:41;17.20;99.90
21787;DHT22;11055;50.870;4.316;2023-05-10T13:27:07;17.20;99.90
21787;DHT22;11055;50.870;4.316;2023-05-10T13:29:33;17.20;99.90
21787;DHT22;11055;50.870;4.316;2023-05-10T13:31:58;17.20;99.90
21787;DHT22;11055;50.870;4.316;2023-05-10T13:34:24;17.20;99.90
21787;DHT22;11055;50.870;4.316;2023-05-10T13:36:50;17.40;99.90
21787;DHT22;11055;50.870;4.316;2023-05-10T13:39:16;17.40;99.90
21787;DHT22;11055;50.870;4.316;2023-05-10T13:41:42;17.60;99.90
21787;DHT22;11055;50.870;4.316;2023-05-10T13:44:07;17.50;99.90
21787;DHT22;11055;50.870;4.316;2023-05-10T13:46:33;17.30;99.90
21787;DHT22;11055;50.870;4.316;2023-05-10T13:48:58;17.00;99.90
21787;DHT22;11055;50.870;4.316;2023-05-10T13:51:24;17.10;99.90
21787;DHT22;11055;50.870;4.316;2023-05-10T13:53:50;16.80;99.90
21787;DHT22;11055;50.870;4.316;2023-05-10T13:56:15;16.80;99.90
21787;DHT22;11055;50.870;4.316;2023-05-10T13:58:41;16.90;99.90
21787;DHT22;11055;50.870;4.316;2023-05-10T14:01:07;17.10;99.90
21787;DHT22;11055;50.870;4.316;2023-05-10T14:03:33;17.10;99.90
21787;DHT22;11055;50.870;4.316;2023-05-10T14:05:58;16.80;99.90
21787;DHT22;11055;50.870;4.316;2023-05-10T14:08:24;16.70;99.90
21787;DHT22;11055;50.870;4.316;2023-05-10T14:10:52;16.70;99.90
21787;DHT22;11055;50.870;4.316;2023-05-10T14:13:18;16.90;99.90
21787;DHT22;11055;50.870;4.316;2023-05-10T14:15:43;17.20;99.90
21787;DHT22;11055;50.870;4.316;2023-05-10T14:18:09;17.30;99.90
21787;DHT22;11055;50.870;4.316;2023-05-10T14:20:35;17.10;99.90
21787;DHT22;11055;50.870;4.316;2023-05-10T14:23:00;17.10;99.90
21787;DHT22;11055;50.870;4.316;2023-05-10T14:25:26;17.10;99.90
21787;DHT22;11055;50.870;4.316;2023-05-10T14:27:52;17.20;99.90
21787;DHT22;11055;50.870;4.316;2023-05-10T14:30:20;17.20;99.90
21787;DHT22;11055;50.870;4.316;2023-05-10T14:32:45;17.30;99.90
21787;DHT22;11055;50.870;4.316;2023-05-10T14:35:11;17.40;99.90
21787;DHT22;11055;50.870;4.316;2023-05-10T14:37:38;17.30;99.90
21787;DHT22;11055;50.870;4.316;2023-05-10T14:40:05;17.10;99.90
21787;DHT22;11055;50.870;4.316;2023-05-10T14:42:31;16.90;99.90
21787;DHT22;11055;50.870;4.316;2023-05-10T14:44:57;16.60;99.90
21787;DHT22;11055;50.870;4.316;2023-05-10T14:47:23;16.60;99.90
21787;DHT22;11055;50.870;4.316;2023-05-10T14:49:49;16.60;99.90
21787;DHT22;11055;50.870;4.316;2023-05-10T14:52:14;16.50;99.90
21787;DHT22;11055;50.870;4.316;2023-05-10T14:54:40;16.40;99.90
21787;DHT22;11055;50.870;4.316;2023-05-10T14:57:06;16.10;99.90
21787;DHT22;11055;50.870;4.316;2023-05-10T14:59:32;15.90;99.90
21787;DHT22;11055;50.870;4.316;2023-05-10T15:01:58;15.70;99.90
21787;DHT22;11055;50.870;4.316;2023-05-10T15:04:24;15.40;99.90
21787;DHT22;11055;50.870;4.316;2023-05-10T15:06:50;15.10;99.90
21787;DHT22;11055;50.870;4.316;2023-05-10T15:09:15;14.90;99.90
21787;DHT22;11055;50.870;4.316;2023-05-10T15:11:42;14.70;99.90
21787;DHT22;11055;50.870;4.316;2023-05-10T15:14:07;14.70;99.90
21787;DHT22;11055;50.870;4.316;2023-05-10T15:16:33;14.70;99.90
21787;DHT22;11055;50.870;4.316;2023-05-10T15:18:58;14.70;99.90
21787;DHT22;11055;50.870;4.316;2023-05-10T15:21:24;14.80;99.90
21787;DHT22;11055;50.870;4.316;2023-05-10T15:23:50;14.70;99.90
21787;DHT22;11055;50.870;4.316;2023-05-10T15:26:15;14.70;99.90
21787;DHT22;11055;50.870;4.316;2023-05-10T15:28:41;14.60;99.90
21787;DHT22;11055;50.870;4.316;2023-05-10T15:31:06;14.50;99.90
21787;DHT22;11055;50.870;4.316;2023-05-10T15:33:32;14.50;99.90
21787;DHT22;11055;50.870;4.316;2023-05-10T15:35:58;14.50;99.90
21787;DHT22;11055;50.870;4.316;2023-05-10T15:38:23;14.60;99.90
21787;DHT22;11055;50.870;4.316;2023-05-10T15:40:49;14.70;99.90
21787;DHT22;11055;50.870;4.316;2023-05-10T15:43:15;14.70;99.90
21787;DHT22;11055;50.870;4.316;2023-05-10T15:45:40;14.70;99.90
21787;DHT22;11055;50.870;4.316;2023-05-10T15:48:06;14.80;99.90
21787;DHT22;11055;50.870;4.316;2023-05-10T15:50:32;15.00;99.90
21787;DHT22;11055;50.870;4.316;2023-05-10T15:52:57;15.00;99.90
21787;DHT22;11055;50.870;4.316;2023-05-10T15:55:23;15.10;99.90
21787;DHT22;11055;50.870;4.316;2023-05-10T15:57:49;15.40;99.90